Time;durP1;ratioP1;P1;durP2;ratioP2;P2;SDS_P1;SDS_P2;PMS_P1;PMS_P2;Temp;Humidity;BMP_temperature;BMP_pressure;BME280_temperature;BME280_humidity;BME280_pressure;Samples;Min_cycle;Max_cycle;Signal;HPM_P1;HPM_P2
2021/07/16 00:01:46;;;;;;;0.80;0.80;;;16.20;99.90;;;;;;5014282;28;20228;-78
2021/07/16 00:04:13;;;;;;;1.80;1.17;;;16.30;99.90;;;;;;5021484;28;20228;-78
2021/07/16 00:06:40;;;;;;;2.15;1.13;;;16.30;99.90;;;;;;5019307;28;20618;-78
2021/07/16 00:09:08;;;;;;;1.58;1.33;;;16.30;99.90;;;;;;5023344;28;20230;-78
2021/07/16 00:11:37;;;;;;;1.70;1.05;;;16.30;99.90;;;;;;5022521;28;20306;-78
2021/07/16 00:14:05;;;;;;;1.10;1.10;;;16.30;99.90;;;;;;5013927;28;20298;-78
2021/07/16 00:16:32;;;;;;;2.20;0.98;;;16.30;99.90;;;;;;5028032;28;20227;-78
2021/07/16 00:19:00;;;;;;;1.00;1.00;;;16.30;99.90;;;;;;5024685;28;20223;-79
2021/07/16 00:21:27;;;;;;;0.90;0.90;;;16.30;99.90;;;;;;5019601;28;20671;-78
2021/07/16 00:23:54;;;;;;;1.00;1.00;;;16.30;99.90;;;;;;5023875;28;20224;-77
2021/07/16 00:26:21;;;;;;;1.00;1.00;;;16.30;99.90;;;;;;5029739;28;20227;-77
2021/07/16 00:28:49;;;;;;;1.00;1.00;;;16.20;99.90;;;;;;5016563;28;20698;-77
2021/07/16 00:31:17;;;;;;;1.02;1.02;;;16.30;99.90;;;;;;5019772;28;20717;-77
2021/07/16 00:33:44;;;;;;;1.10;1.10;;;16.30;99.90;;;;;;5022078;28;20220;-77
2021/07/16 00:36:11;;;;;;;1.17;1.08;;;16.30;99.90;;;;;;5028259;28;20237;-77
2021/07/16 00:38:40;;;;;;;1.30;1.20;;;16.30;99.90;;;;;;5022658;28;20233;-77
2021/07/16 00:41:08;;;;;;;0.80;0.80;;;16.30;99.90;;;;;;5019898;28;20945;-77
2021/07/16 00:43:35;;;;;;;1.00;1.00;;;16.30;99.90;;;;;;5019456;28;20238;-78
2021/07/16 00:46:03;;;;;;;0.90;0.90;;;16.30;99.90;;;;;;5024731;28;20315;-77
2021/07/16 00:48:30;;;;;;;1.10;1.10;;;16.40;99.90;;;;;;5018499;28;20278;-77
2021/07/16 00:50:57;;;;;;;1.00;1.00;;;16.40;99.90;;;;;;5022338;28;20230;-78
2021/07/16 00:53:25;;;;;;;1.10;1.10;;;16.40;99.90;;;;;;5020349;28;20219;-78
2021/07/16 00:55:52;;;;;;;1.00;1.00;;;16.30;99.90;;;;;;5023410;28;20600;-78
2021/07/16 00:58:19;;;;;;;1.13;1.13;;;16.30;99.90;;;;;;5019490;28;20220;-77
2021/07/16 01:00:46;;;;;;;1.00;1.00;;;16.20;99.90;;;;;;5019170;28;20294;-78
2021/07/16 01:03:15;;;;;;;1.00;1.00;;;16.00;99.90;;;;;;5016781;28;20270;-77
2021/07/16 01:05:42;;;;;;;1.10;1.10;;;16.00;99.90;;;;;;5016781;28;20223;-77
2021/07/16 01:08:10;;;;;;;0.90;0.90;;;16.00;99.90;;;;;;5028435;28;20246;-77
2021/07/16 01:10:38;;;;;;;1.10;1.10;;;16.00;99.90;;;;;;5023074;28;20294;-77
2021/07/16 01:13:07;;;;;;;0.93;0.93;;;16.00;99.90;;;;;;5024097;28;20276;-77
2021/07/16 01:15:35;;;;;;;1.95;1.00;;;16.00;99.90;;;;;;5018845;28;20248;-77
2021/07/16 01:18:02;;;;;;;1.00;1.00;;;16.00;99.90;;;;;;5019437;28;20229;-77
2021/07/16 01:20:32;;;;;;;1.00;1.00;;;16.00;99.90;;;;;;5021928;28;20223;-77
2021/07/16 01:23:01;;;;;;;0.90;0.90;;;16.00;99.90;;;;;;5021378;28;20712;-77
2021/07/16 01:25:31;;;;;;;1.83;0.95;;;16.00;99.90;;;;;;5027134;28;20226;-77
2021/07/16 01:28:00;;;;;;;0.90;0.90;;;16.00;99.90;;;;;;5025412;28;20219;-77
2021/07/16 01:30:29;;;;;;;1.30;1.20;;;16.00;99.90;;;;;;5025619;28;20306;-78
2021/07/16 01:33:00;;;;;;;1.00;1.00;;;15.90;99.90;;;;;;5020929;28;20224;-77
2021/07/16 01:35:28;;;;;;;1.00;1.00;;;15.90;99.90;;;;;;5021356;28;20219;-77
2021/07/16 01:37:55;;;;;;;0.93;0.93;;;15.90;99.90;;;;;;5026637;28;20289;-77
2021/07/16 01:40:24;;;;;;;1.20;1.10;;;15.90;99.90;;;;;;5021927;28;20219;-77
2021/07/16 01:42:55;;;;;;;1.15;1.10;;;15.80;99.90;;;;;;5023907;28;20226;-78
2021/07/16 01:45:25;;;;;;;0.98;0.95;;;15.70;99.90;;;;;;5024691;28;20230;-77
2021/07/16 01:47:55;;;;;;;1.65;0.95;;;15.70;99.90;;;;;;5019263;28;20276;-77
2021/07/16 01:50:22;;;;;;;0.98;0.98;;;15.70;99.90;;;;;;5023469;28;20283;-78
2021/07/16 01:52:50;;;;;;;1.65;1.10;;;15.70;99.90;;;;;;5026632;28;20224;-77
2021/07/16 01:55:18;;;;;;;1.00;1.00;;;15.70;99.90;;;;;;5025378;28;20224;-78
2021/07/16 01:57:46;;;;;;;1.30;1.20;;;15.70;99.90;;;;;;5015768;28;20219;-77
2021/07/16 02:00:17;;;;;;;0.98;0.98;;;15.70;99.90;;;;;;5023620;28;20220;-78
2021/07/16 02:02:49;;;;;;;0.90;0.90;;;15.80;99.90;;;;;;5013906;28;20227;-77
2021/07/16 02:05:17;;;;;;;1.05;1.05;;;15.80;99.90;;;;;;5018047;28;20224;-77
2021/07/16 02:07:45;;;;;;;1.08;1.08;;;15.80;99.90;;;;;;5019088;28;20641;-78
2021/07/16 02:10:12;;;;;;;1.10;0.98;;;15.90;99.90;;;;;;5018694;28;20215;-77
2021/07/16 02:12:39;;;;;;;0.80;0.80;;;15.90;99.90;;;;;;5014730;28;20231;-77
2021/07/16 02:15:10;;;;;;;1.00;1.00;;;15.90;99.90;;;;;;5018389;28;20227;-77
2021/07/16 02:17:39;;;;;;;1.30;1.20;;;15.90;99.90;;;;;;5010298;28;20733;-77
2021/07/16 02:20:18;;;;;;;1.00;1.00;;;15.90;99.90;;;;;;5015497;28;20284;-77
2021/07/16 02:22:45;;;;;;;1.08;1.08;;;15.90;99.90;;;;;;5008705;28;20228;-77
2021/07/16 02:25:14;;;;;;;1.25;1.25;;;15.90;99.90;;;;;;5022254;28;20220;-77
2021/07/16 02:27:41;;;;;;;1.27;1.15;;;15.90;99.90;;;;;;5021796;28;20281;-77
2021/07/16 02:30:09;;;;;;;1.13;1.13;;;15.90;99.90;;;;;;5014937;28;20227;-77
2021/07/16 02:32:36;;;;;;;1.00;1.00;;;15.90;99.90;;;;;;5018253;28;20230;-77
2021/07/16 02:35:07;;;;;;;0.80;0.80;;;15.90;99.90;;;;;;5023611;28;20227;-78
2021/07/16 02:37:34;;;;;;;1.10;1.10;;;15.80;99.90;;;;;;5022190;28;20780;-78
2021/07/16 02:40:01;;;;;;;1.00;1.00;;;15.80;99.90;;;;;;5022249;28;20246;-77
2021/07/16 02:42:28;;;;;;;0.90;0.90;;;15.80;99.90;;;;;;5021284;28;20313;-77
2021/07/16 02:44:55;;;;;;;1.30;1.20;;;15.80;99.90;;;;;;5012590;28;20227;-77
2021/07/16 02:47:22;;;;;;;1.35;1.25;;;15.80;99.90;;;;;;5023057;28;20216;-77
2021/07/16 02:49:49;;;;;;;1.02;1.00;;;15.80;99.90;;;;;;5021516;28;20215;-77
2021/07/16 02:52:18;;;;;;;1.38;1.27;;;15.80;99.90;;;;;;5020853;28;20376;-77
2021/07/16 02:54:45;;;;;;;1.30;1.20;;;15.80;99.90;;;;;;5021878;28;20243;-77
2021/07/16 02:57:12;;;;;;;1.00;1.00;;;15.70;99.90;;;;;;5015407;28;20236;-77
2021/07/16 02:59:39;;;;;;;0.98;0.98;;;15.70;99.90;;;;;;5015598;28;20224;-77
2021/07/16 03:02:08;;;;;;;0.95;0.80;;;15.60;99.90;;;;;;5018691;28;20231;-77
2021/07/16 03:04:35;;;;;;;1.10;1.10;;;15.60;99.90;;;;;;5020386;28;20239;-77
2021/07/16 03:07:02;;;;;;;0.95;0.95;;;15.60;99.90;;;;;;5014480;28;20769;-78
2021/07/16 03:09:34;;;;;;;1.00;1.00;;;15.60;99.90;;;;;;5020749;28;20771;-77
2021/07/16 03:12:02;;;;;;;1.20;1.10;;;15.60;99.90;;;;;;5018817;28;20233;-77
2021/07/16 03:14:29;;;;;;;1.33;1.23;;;15.60;99.90;;;;;;5016282;28;20223;-77
2021/07/16 03:16:56;;;;;;;1.48;1.27;;;15.50;99.90;;;;;;5024258;28;20312;-77
2021/07/16 03:19:23;;;;;;;1.13;1.13;;;15.50;99.90;;;;;;5013996;28;20223;-78
2021/07/16 03:21:50;;;;;;;1.95;0.90;;;15.50;99.90;;;;;;5018724;28;20639;-79
2021/07/16 03:24:19;;;;;;;1.40;1.30;;;15.50;99.90;;;;;;5023422;28;20275;-77
2021/07/16 03:26:47;;;;;;;0.95;0.95;;;15.50;99.90;;;;;;5027219;28;20297;-77
2021/07/16 03:29:14;;;;;;;1.23;1.20;;;15.50;99.90;;;;;;5021074;28;20282;-77
2021/07/16 03:31:41;;;;;;;1.10;1.10;;;15.40;99.90;;;;;;5017017;28;20227;-77
2021/07/16 03:34:09;;;;;;;0.95;0.95;;;15.40;99.90;;;;;;5018066;28;20224;-77
2021/07/16 03:36:36;;;;;;;1.30;1.20;;;15.40;99.90;;;;;;5027975;28;20227;-78
2021/07/16 03:39:05;;;;;;;1.27;1.02;;;15.40;99.90;;;;;;5018882;28;20328;-77
2021/07/16 03:41:32;;;;;;;1.00;1.00;;;15.30;99.90;;;;;;5022508;28;20272;-77
2021/07/16 03:44:00;;;;;;;1.10;1.10;;;15.30;99.90;;;;;;5021773;28;20223;-76
2021/07/16 03:46:28;;;;;;;1.08;1.00;;;15.30;99.90;;;;;;5022929;28;20275;-77
2021/07/16 03:48:56;;;;;;;1.30;1.20;;;15.30;99.90;;;;;;5020999;28;20258;-76
2021/07/16 03:51:23;;;;;;;2.33;1.30;;;15.30;99.90;;;;;;5024697;28;20246;-78
2021/07/16 03:53:50;;;;;;;1.23;1.23;;;15.30;99.90;;;;;;5024067;28;20220;-77
2021/07/16 03:56:17;;;;;;;1.70;1.33;;;15.40;99.90;;;;;;5018433;28;20220;-77
2021/07/16 03:58:46;;;;;;;0.95;0.95;;;15.40;99.90;;;;;;5019538;28;20826;-77
2021/07/16 04:01:15;;;;;;;1.08;1.08;;;15.40;99.90;;;;;;5018340;28;20231;-76
2021/07/16 04:03:42;;;;;;;1.10;1.00;;;15.40;99.90;;;;;;5019814;28;20767;-77
2021/07/16 04:06:10;;;;;;;1.25;1.13;;;15.40;99.90;;;;;;5016925;28;20227;-77
2021/07/16 04:08:39;;;;;;;1.10;1.10;;;15.40;99.90;;;;;;5020271;28;20270;-77
2021/07/16 04:11:06;;;;;;;1.45;1.20;;;15.40;99.90;;;;;;5021574;28;20286;-77
2021/07/16 04:13:34;;;;;;;1.08;1.05;;;15.30;99.90;;;;;;5023279;28;20321;-77
2021/07/16 04:16:02;;;;;;;0.88;0.88;;;15.40;99.90;;;;;;5018126;28;20274;-76
2021/07/16 04:18:30;;;;;;;1.17;1.17;;;15.40;99.90;;;;;;5016535;28;20238;-78
2021/07/16 04:20:57;;;;;;;1.13;1.13;;;15.30;99.90;;;;;;5017301;28;20273;-77
2021/07/16 04:23:24;;;;;;;1.10;1.10;;;15.30;99.90;;;;;;5022264;28;20235;-77
2021/07/16 04:25:51;;;;;;;1.08;1.08;;;15.30;99.90;;;;;;5017073;28;20224;-77
2021/07/16 04:28:18;;;;;;;1.00;1.00;;;15.30;99.90;;;;;;5024130;28;20246;-78
2021/07/16 04:30:45;;;;;;;1.33;0.98;;;15.30;99.90;;;;;;5021043;28;20278;-76
2021/07/16 04:33:13;;;;;;;1.02;1.00;;;15.40;99.90;;;;;;5025867;28;20276;-77
2021/07/16 04:35:42;;;;;;;1.10;1.10;;;15.40;99.90;;;;;;5020046;28;20325;-77
2021/07/16 04:38:09;;;;;;;1.48;1.38;;;15.50;99.90;;;;;;5023021;28;20224;-77
2021/07/16 04:40:35;;;;;;;0.90;0.90;;;15.50;99.90;;;;;;5016793;28;20235;-78
2021/07/16 04:43:03;;;;;;;1.15;1.15;;;15.60;99.90;;;;;;5024461;28;20220;-78
2021/07/16 04:45:37;;;;;;;1.40;1.30;;;15.60;99.90;;;;;;5021181;28;20215;-76
2021/07/16 04:48:06;;;;;;;1.10;1.10;;;15.60;99.90;;;;;;5024723;28;20219;-77
2021/07/16 04:50:33;;;;;;;1.15;1.05;;;15.60;99.90;;;;;;5017894;28;20298;-78
2021/07/16 04:53:01;;;;;;;1.40;1.30;;;15.50;99.90;;;;;;5019117;28;21024;-77
2021/07/16 04:55:28;;;;;;;1.15;1.10;;;15.60;99.90;;;;;;5018986;28;20233;-77
2021/07/16 04:57:55;;;;;;;1.30;1.20;;;15.60;99.90;;;;;;5013077;28;20607;-77
2021/07/16 05:00:23;;;;;;;1.23;1.13;;;15.60;99.90;;;;;;5023766;28;20215;-78
2021/07/16 05:02:50;;;;;;;1.20;1.20;;;15.70;99.90;;;;;;5020393;28;20714;-77
2021/07/16 05:05:17;;;;;;;1.00;1.00;;;15.90;99.90;;;;;;5020338;28;20273;-77
2021/07/16 05:07:44;;;;;;;1.15;1.10;;;16.00;99.90;;;;;;5023185;28;20286;-77
2021/07/16 05:10:13;;;;;;;1.33;1.17;;;16.20;99.90;;;;;;5017255;28;20220;-77
2021/07/16 05:12:41;;;;;;;1.20;1.20;;;16.30;99.90;;;;;;5020302;28;20282;-77
2021/07/16 05:15:10;;;;;;;1.10;1.10;;;16.40;99.90;;;;;;5016662;28;20636;-80
2021/07/16 05:17:37;;;;;;;2.35;1.25;;;16.40;99.90;;;;;;5016199;28;20234;-77
2021/07/16 05:20:06;;;;;;;1.13;1.13;;;16.40;99.90;;;;;;5019973;28;21754;-77
2021/07/16 05:22:33;;;;;;;2.03;1.15;;;16.50;99.90;;;;;;5017532;28;20806;-80
2021/07/16 05:25:01;;;;;;;1.23;1.23;;;16.70;99.90;;;;;;5025032;28;20294;-77
2021/07/16 05:27:30;;;;;;;1.50;1.30;;;16.80;99.90;;;;;;5021652;28;20249;-77
2021/07/16 05:29:57;;;;;;;1.10;1.10;;;16.90;99.90;;;;;;5021719;28;20790;-77
2021/07/16 05:32:24;;;;;;;1.10;1.10;;;16.60;99.90;;;;;;5021609;28;20231;-77
2021/07/16 05:34:51;;;;;;;1.67;1.10;;;16.40;99.90;;;;;;5018506;28;20215;-77
2021/07/16 05:37:18;;;;;;;1.30;1.20;;;16.30;99.90;;;;;;5024675;28;20738;-77
2021/07/16 05:39:45;;;;;;;4.47;1.40;;;16.40;99.90;;;;;;5025168;28;20230;-77
2021/07/16 05:42:12;;;;;;;1.40;1.25;;;16.50;99.90;;;;;;5008072;28;20795;-77
2021/07/16 05:44:40;;;;;;;2.05;1.73;;;16.60;99.90;;;;;;5022744;28;20224;-76
2021/07/16 05:47:07;;;;;;;1.48;1.38;;;16.70;99.90;;;;;;5015961;28;20227;-76
2021/07/16 05:49:34;;;;;;;2.78;1.17;;;16.80;99.90;;;;;;5017595;28;20729;-79
2021/07/16 05:52:02;;;;;;;1.50;1.30;;;16.90;99.90;;;;;;5020775;28;20281;-77
2021/07/16 05:54:29;;;;;;;1.20;1.20;;;16.90;99.90;;;;;;5020947;28;20222;-78
2021/07/16 05:56:56;;;;;;;1.95;1.48;;;17.10;99.90;;;;;;5015657;28;20228;-77
2021/07/16 05:59:23;;;;;;;2.67;1.52;;;17.10;99.90;;;;;;5014962;28;20483;-77
2021/07/16 06:01:51;;;;;;;1.25;1.15;;;17.00;99.90;;;;;;5017481;28;20223;-77
2021/07/16 06:04:18;;;;;;;1.75;1.45;;;17.00;99.90;;;;;;5027539;28;20265;-77
2021/07/16 06:06:49;;;;;;;1.30;1.20;;;17.10;99.90;;;;;;5014996;28;20240;-77
2021/07/16 06:09:16;;;;;;;1.65;1.40;;;17.10;99.90;;;;;;5014233;28;20234;-76
2021/07/16 06:11:43;;;;;;;1.60;1.45;;;17.20;99.90;;;;;;5016686;28;20239;-76
2021/07/16 06:14:10;;;;;;;1.35;1.25;;;17.50;99.90;;;;;;5013142;28;20216;-77
2021/07/16 06:16:37;;;;;;;2.88;1.50;;;17.80;99.90;;;;;;5019173;28;20273;-77
2021/07/16 06:19:05;;;;;;;1.88;1.48;;;18.00;99.90;;;;;;5018394;28;20285;-76
2021/07/16 06:21:32;;;;;;;2.15;1.30;;;18.10;99.90;;;;;;5027182;28;20277;-77
2021/07/16 06:23:59;;;;;;;1.23;1.20;;;18.20;99.90;;;;;;5021704;28;20230;-77
2021/07/16 06:26:26;;;;;;;1.60;1.50;;;18.30;99.90;;;;;;5018549;28;20648;-77
2021/07/16 06:28:53;;;;;;;2.22;1.48;;;18.30;99.90;;;;;;5017165;28;20649;-78
2021/07/16 06:31:20;;;;;;;1.42;1.25;;;18.30;99.90;;;;;;5020249;28;20236;-77
2021/07/16 06:33:47;;;;;;;1.63;1.35;;;18.20;99.90;;;;;;5014485;28;20879;-77
2021/07/16 06:36:16;;;;;;;1.73;1.25;;;18.40;99.90;;;;;;5009832;28;20235;-77
2021/07/16 06:38:43;;;;;;;1.60;1.23;;;18.50;99.90;;;;;;5011250;28;20267;-77
2021/07/16 06:41:10;;;;;;;1.55;1.45;;;18.60;99.90;;;;;;5006952;28;20594;-77
2021/07/16 06:43:37;;;;;;;1.35;1.25;;;18.50;99.90;;;;;;5010256;28;22551;-76
2021/07/16 06:46:04;;;;;;;2.00;1.23;;;18.50;99.90;;;;;;5015325;28;20227;-77
2021/07/16 06:48:31;;;;;;;1.60;1.50;;;18.60;99.90;;;;;;5007711;28;20278;-76
2021/07/16 06:50:58;;;;;;;1.17;1.17;;;18.70;99.90;;;;;;5013542;28;20265;-77
2021/07/16 06:53:27;;;;;;;3.92;2.28;;;18.80;99.90;;;;;;5016975;28;20228;-78
2021/07/16 06:55:54;;;;;;;1.50;1.40;;;18.90;99.90;;;;;;5003626;28;20232;-78
2021/07/16 06:58:21;;;;;;;1.65;1.13;;;19.00;99.90;;;;;;5004812;28;20296;-77
2021/07/16 07:00:50;;;;;;;1.58;1.20;;;19.10;99.90;;;;;;5014847;28;20231;-78
2021/07/16 07:03:17;;;;;;;1.35;1.25;;;19.10;99.90;;;;;;5015379;28;20230;-77
2021/07/16 07:05:44;;;;;;;2.55;1.45;;;19.30;99.90;;;;;;5013952;28;20227;-76
2021/07/16 07:08:11;;;;;;;1.50;1.23;;;19.30;99.90;;;;;;5017598;28;20227;-75
2021/07/16 07:10:40;;;;;;;1.92;1.38;;;19.40;99.90;;;;;;5017030;28;20274;-77
2021/07/16 07:13:07;;;;;;;1.20;1.13;;;19.30;99.90;;;;;;5014469;28;20228;-76
2021/07/16 07:15:36;;;;;;;1.17;1.10;;;19.40;99.90;;;;;;5006301;28;20235;-78
2021/07/16 07:18:04;;;;;;;2.45;1.55;;;19.80;99.90;;;;;;5010764;28;20228;-78
2021/07/16 07:20:32;;;;;;;1.30;1.20;;;20.20;99.90;;;;;;5015321;28;20232;-77
2021/07/16 07:23:00;;;;;;;2.28;1.30;;;20.40;99.90;;;;;;5016957;28;20290;-77
2021/07/16 07:25:27;;;;;;;1.33;1.20;;;20.50;99.90;;;;;;5020987;28;20223;-76
2021/07/16 07:27:56;;;;;;;1.20;1.10;;;20.60;99.90;;;;;;5013373;28;20645;-76
2021/07/16 07:30:24;;;;;;;1.65;1.20;;;20.60;99.90;;;;;;5024379;28;20629;-76
2021/07/16 07:32:51;;;;;;;2.60;1.50;;;20.70;99.90;;;;;;5014846;28;20281;-76
2021/07/16 07:35:18;;;;;;;1.23;1.13;;;20.60;99.90;;;;;;5017548;28;20632;-76
2021/07/16 07:37:45;;;;;;;1.73;1.30;;;20.50;99.90;;;;;;5018205;28;20235;-76
2021/07/16 07:40:15;;;;;;;1.55;1.13;;;20.40;99.90;;;;;;5013350;28;20223;-77
2021/07/16 07:42:43;;;;;;;1.45;1.17;;;20.10;99.90;;;;;;5022491;28;20229;-76
2021/07/16 07:45:13;;;;;;;1.20;1.10;;;19.80;99.90;;;;;;5025983;28;20220;-77
2021/07/16 07:47:40;;;;;;;1.20;1.10;;;19.50;99.90;;;;;;5025084;28;20520;-76
2021/07/16 07:50:12;;;;;;;2.38;1.08;;;19.40;99.90;;;;;;5026712;28;20224;-76
2021/07/16 07:52:39;;;;;;;1.77;1.23;;;19.20;99.90;;;;;;5027255;28;20317;-77
2021/07/16 07:55:07;;;;;;;1.30;1.20;;;19.20;99.90;;;;;;5022202;28;20227;-76
2021/07/16 07:57:34;;;;;;;1.27;1.17;;;19.10;99.90;;;;;;5028505;28;20724;-77
2021/07/16 08:00:01;;;;;;;3.53;1.13;;;19.00;99.90;;;;;;5029148;28;20219;-78
2021/07/16 08:02:29;;;;;;;1.38;1.27;;;19.00;99.90;;;;;;5026849;28;20769;-77
2021/07/16 08:04:56;;;;;;;1.10;1.00;;;19.00;99.90;;;;;;5021138;28;20219;-78
2021/07/16 08:07:23;;;;;;;1.52;1.42;;;19.10;99.90;;;;;;5021942;28;20226;-76
2021/07/16 08:09:50;;;;;;;1.25;1.15;;;19.30;99.90;;;;;;5024306;28;20269;-77
2021/07/16 08:12:17;;;;;;;1.88;1.20;;;19.40;99.90;;;;;;5025481;28;20228;-76
2021/07/16 08:14:44;;;;;;;1.48;1.20;;;19.40;99.90;;;;;;5021012;28;20219;-77
2021/07/16 08:17:11;;;;;;;1.40;1.10;;;19.30;99.90;;;;;;5027785;28;20224;-76
2021/07/16 08:19:40;;;;;;;1.20;1.20;;;19.30;99.90;;;;;;5024427;28;20235;-76
2021/07/16 08:22:07;;;;;;;1.30;1.20;;;19.30;99.90;;;;;;5018086;28;20227;-78
2021/07/16 08:24:34;;;;;;;1.10;1.10;;;19.40;99.90;;;;;;5022252;28;20650;-78
2021/07/16 08:27:01;;;;;;;1.30;1.20;;;19.50;99.90;;;;;;5020631;28;20223;-76
2021/07/16 08:29:28;;;;;;;3.28;1.10;;;19.70;99.90;;;;;;5029014;28;20224;-77
2021/07/16 08:31:55;;;;;;;1.30;1.20;;;19.90;99.90;;;;;;5018651;28;20224;-76
2021/07/16 08:34:22;;;;;;;1.00;1.00;;;20.20;99.90;;;;;;5020666;28;20281;-78
2021/07/16 08:36:50;;;;;;;0.90;0.90;;;20.40;99.90;;;;;;5020198;28;20690;-77
2021/07/16 08:39:17;;;;;;;2.25;1.58;;;20.80;99.90;;;;;;5021345;28;20227;-77
2021/07/16 08:41:44;;;;;;;1.75;1.00;;;20.90;99.90;;;;;;5022877;28;20278;-77
2021/07/16 08:44:12;;;;;;;1.05;1.05;;;20.90;99.90;;;;;;5017612;28;20227;-76
2021/07/16 08:46:39;;;;;;;1.10;1.00;;;21.00;99.90;;;;;;5032764;28;20226;-77
2021/07/16 08:49:06;;;;;;;0.90;0.90;;;21.00;99.90;;;;;;5022639;28;20232;-76
2021/07/16 08:51:33;;;;;;;1.60;1.02;;;21.10;99.90;;;;;;5031669;28;20292;-76
2021/07/16 08:54:01;;;;;;;1.20;1.10;;;21.10;99.90;;;;;;5023190;28;20226;-77
2021/07/16 08:56:32;;;;;;;1.75;1.20;;;21.30;99.90;;;;;;5019576;28;20247;-77
2021/07/16 08:59:00;;;;;;;1.42;1.33;;;21.40;99.90;;;;;;5024118;28;20262;-76
2021/07/16 09:01:27;;;;;;;1.60;1.50;;;21.70;99.90;;;;;;5022027;28;20717;-76
2021/07/16 09:03:59;;;;;;;1.30;1.20;;;21.70;99.90;;;;;;5027582;28;20219;-78
2021/07/16 09:06:49;;;;;;;2.17;1.30;;;21.80;99.90;;;;;;5022789;28;20224;-77
2021/07/16 09:09:18;;;;;;;2.15;1.13;;;22.10;99.90;;;;;;5022294;28;20727;-76
2021/07/16 09:11:47;;;;;;;1.08;1.08;;;22.10;99.90;;;;;;5023197;28;20723;-76
2021/07/16 09:14:24;;;;;;;1.05;1.00;;;21.90;99.90;;;;;;5022219;28;20581;-78
2021/07/16 09:16:56;;;;;;;1.13;1.13;;;21.70;99.90;;;;;;5020927;28;20773;-76
2021/07/16 09:19:28;;;;;;;1.05;0.95;;;22.20;99.90;;;;;;5022260;28;20233;-76
2021/07/16 09:22:04;;;;;;;1.35;1.08;;;22.30;99.90;;;;;;5019543;28;20257;-76
2021/07/16 09:27:54;;;;;;;1.80;1.13;;;22.20;99.90;;;;;;5016877;28;20214;-76
2021/07/16 09:30:23;;;;;;;1.33;1.00;;;22.00;99.90;;;;;;5027139;28;20211;-77
2021/07/16 09:32:52;;;;;;;1.30;1.20;;;22.00;99.90;;;;;;5023640;28;20605;-77
2021/07/16 09:35:20;;;;;;;4.47;1.30;;;22.20;99.90;;;;;;5021545;28;20212;-77
2021/07/16 09:37:52;;;;;;;1.20;1.10;;;22.40;99.90;;;;;;5027132;28;20631;-76
2021/07/16 09:40:24;;;;;;;2.95;1.20;;;22.60;99.90;;;;;;5017681;28;20224;-76
2021/07/16 09:43:03;;;;;;;2.53;1.13;;;22.50;99.90;;;;;;5017298;28;20231;-77
2021/07/16 09:45:30;;;;;;;1.10;1.00;;;22.40;99.90;;;;;;5025876;28;20226;-78
2021/07/16 09:47:59;;;;;;;1.98;0.90;;;22.20;99.90;;;;;;5021012;28;20831;-76
2021/07/16 09:50:26;;;;;;;1.00;0.85;;;22.20;99.90;;;;;;5023771;28;20692;-76
2021/07/16 09:53:16;;;;;;;4.32;1.20;;;22.10;99.90;;;;;;5018268;28;20897;-77
2021/07/16 09:55:44;;;;;;;4.38;1.08;;;22.10;99.90;;;;;;5024052;28;20288;-79
2021/07/16 09:58:26;;;;;;;2.00;1.10;;;22.10;99.90;;;;;;5021452;28;20657;-76
2021/07/16 10:00:54;;;;;;;1.10;1.10;;;22.20;99.90;;;;;;5024052;28;20211;-76
2021/07/16 10:03:21;;;;;;;1.30;1.20;;;22.50;99.90;;;;;;5016205;28;20317;-77
2021/07/16 10:05:50;;;;;;;0.93;0.90;;;22.50;99.90;;;;;;5030890;28;20273;-77
2021/07/16 10:08:19;;;;;;;1.02;0.90;;;22.40;99.90;;;;;;5024632;28;20354;-77
2021/07/16 10:10:48;;;;;;;1.02;1.00;;;22.40;99.90;;;;;;5017671;28;20866;-77
2021/07/16 10:13:17;;;;;;;1.10;1.00;;;22.30;99.90;;;;;;5021607;28;20228;-76
2021/07/16 10:15:46;;;;;;;1.10;1.00;;;22.20;99.90;;;;;;5022199;28;20224;-76
2021/07/16 10:18:13;;;;;;;1.10;1.00;;;22.10;99.90;;;;;;5025691;28;20224;-76
2021/07/16 10:20:41;;;;;;;1.08;0.98;;;22.00;99.90;;;;;;5022343;28;20220;-75
2021/07/16 10:23:10;;;;;;;1.77;1.35;;;21.90;99.90;;;;;;5021793;28;20223;-78
2021/07/16 10:25:37;;;;;;;1.17;1.08;;;21.80;99.90;;;;;;5018094;28;20250;-78
2021/07/16 10:28:05;;;;;;;1.92;1.45;;;21.70;99.90;;;;;;5027286;28;20704;-77
2021/07/16 10:30:35;;;;;;;1.00;1.00;;;21.60;99.90;;;;;;5030289;28;20215;-77
2021/07/16 10:33:04;;;;;;;1.08;1.05;;;21.50;99.90;;;;;;5026112;28;20233;-78
2021/07/16 10:35:37;;;;;;;1.40;1.00;;;21.50;99.90;;;;;;5027997;28;20254;-78
2021/07/16 10:38:05;;;;;;;1.45;1.10;;;21.50;99.90;;;;;;5018410;28;20236;-79
2021/07/16 10:40:39;;;;;;;1.00;1.00;;;21.50;99.90;;;;;;5031314;28;20280;-78
2021/07/16 10:43:07;;;;;;;0.85;0.85;;;21.60;99.90;;;;;;5020411;28;20219;-77
2021/07/16 10:45:36;;;;;;;0.80;0.80;;;21.60;99.90;;;;;;5025877;28;20219;-78
2021/07/16 10:48:19;;;;;;;0.90;0.90;;;21.70;99.90;;;;;;5023598;28;20276;-79
2021/07/16 10:50:47;;;;;;;0.80;0.80;;;21.80;99.90;;;;;;5019515;28;20230;-77
2021/07/16 10:53:38;;;;;;;1.15;1.05;;;21.80;99.90;;;;;;5021812;28;20668;-78
2021/07/16 10:56:07;;;;;;;2.13;0.90;;;21.80;99.90;;;;;;5017881;28;20737;-78
2021/07/16 10:58:45;;;;;;;0.90;0.90;;;21.80;99.90;;;;;;5020879;28;20245;-78
2021/07/16 11:01:14;;;;;;;0.90;0.90;;;21.60;99.90;;;;;;5014652;28;20216;-78
2021/07/16 11:03:43;;;;;;;2.10;0.82;;;21.50;99.90;;;;;;5024969;28;20602;-78
2021/07/16 11:06:13;;;;;;;0.70;0.70;;;21.30;99.90;;;;;;5014864;28;20254;-78
2021/07/16 11:08:57;;;;;;;1.33;0.90;;;21.30;99.90;;;;;;5029907;28;20224;-78
2021/07/16 11:11:36;;;;;;;0.90;0.90;;;21.30;99.90;;;;;;5025317;28;20307;-77
2021/07/16 11:14:04;;;;;;;0.80;0.80;;;21.40;99.90;;;;;;5016631;28;20224;-78
2021/07/16 11:16:44;;;;;;;0.88;0.85;;;21.50;99.90;;;;;;5027792;28;20219;-80
2021/07/16 11:19:26;;;;;;;0.88;0.88;;;21.50;99.90;;;;;;5017890;28;20293;-79
2021/07/16 11:22:01;;;;;;;1.35;0.90;;;21.70;99.90;;;;;;5023207;28;20236;-78
2021/07/16 11:24:32;;;;;;;1.05;0.80;;;21.90;99.90;;;;;;5026824;28;20222;-78
2021/07/16 11:27:01;;;;;;;1.48;0.73;;;22.10;99.90;;;;;;5031865;28;20704;-80
2021/07/16 11:29:30;;;;;;;0.88;0.88;;;22.30;99.90;;;;;;5024408;28;20225;-78
2021/07/16 11:32:07;;;;;;;0.98;0.90;;;22.50;99.90;;;;;;5031089;28;20239;-78
2021/07/16 11:34:38;;;;;;;0.80;0.80;;;22.60;99.90;;;;;;5021179;28;20219;-78
2021/07/16 11:37:06;;;;;;;1.10;1.08;;;22.60;99.90;;;;;;5029455;28;20760;-78
2021/07/16 11:39:35;;;;;;;0.90;0.90;;;22.60;99.90;;;;;;5019094;28;20251;-78
2021/07/16 11:42:04;;;;;;;0.90;0.90;;;22.60;99.90;;;;;;5018024;28;20236;-78
2021/07/16 11:44:33;;;;;;;1.00;0.90;;;22.60;99.90;;;;;;5027827;28;20269;-78
2021/07/16 11:47:13;;;;;;;0.93;0.93;;;22.70;99.90;;;;;;5022525;28;20242;-78
2021/07/16 11:49:46;;;;;;;0.75;0.75;;;22.80;99.90;;;;;;5027511;28;20214;-79
2021/07/16 11:52:17;;;;;;;0.80;0.80;;;23.00;99.90;;;;;;5038193;28;20321;-79
2021/07/16 11:54:45;;;;;;;1.15;0.77;;;23.40;99.90;;;;;;5025372;28;20307;-78
2021/07/16 11:57:15;;;;;;;1.30;1.08;;;23.50;99.90;;;;;;5027546;28;20223;-79
2021/07/16 11:59:47;;;;;;;1.42;1.10;;;23.40;99.90;;;;;;5024169;28;20610;-79
2021/07/16 12:02:17;;;;;;;0.80;0.80;;;23.40;99.90;;;;;;5027401;28;20276;-79
2021/07/16 12:04:47;;;;;;;1.38;0.90;;;23.50;99.90;;;;;;5027124;28;20282;-79
2021/07/16 12:07:15;;;;;;;1.15;1.00;;;23.70;99.90;;;;;;5032400;28;20230;-79
2021/07/16 12:09:44;;;;;;;1.33;0.80;;;23.80;99.90;;;;;;5024721;28;20285;-78
2021/07/16 12:12:13;;;;;;;1.02;0.95;;;23.80;99.90;;;;;;5025061;28;20233;-79
2021/07/16 12:14:55;;;;;;;0.85;0.80;;;23.90;99.90;;;;;;5028689;28;20523;-78
2021/07/16 12:17:25;;;;;;;1.83;1.00;;;24.00;99.90;;;;;;5033245;28;20690;-79
2021/07/16 12:19:55;;;;;;;1.95;0.90;;;23.90;99.90;;;;;;5017578;28;20227;-78
2021/07/16 12:22:24;;;;;;;1.05;1.00;;;23.80;99.90;;;;;;5019324;28;20228;-79
2021/07/16 12:24:52;;;;;;;0.90;0.90;;;23.70;99.90;;;;;;5013198;28;20212;-78
2021/07/16 12:27:20;;;;;;;1.20;1.10;;;23.70;99.90;;;;;;5016437;28;20223;-79
2021/07/16 12:29:55;;;;;;;1.60;1.00;;;23.90;99.90;;;;;;5017909;28;20223;-79
2021/07/16 12:32:33;;;;;;;0.80;0.80;;;24.10;99.90;;;;;;5016113;28;20752;-78
2021/07/16 12:35:12;;;;;;;0.82;0.73;;;24.30;99.90;;;;;;5021323;28;20634;-79
2021/07/16 12:37:40;;;;;;;0.80;0.80;;;24.60;99.90;;;;;;5022324;28;20272;-79
2021/07/16 12:40:08;;;;;;;0.90;0.90;;;24.60;99.90;;;;;;5022565;28;20730;-78
2021/07/16 12:42:36;;;;;;;0.90;0.90;;;24.60;99.90;;;;;;5027596;28;20292;-77
2021/07/16 12:45:07;;;;;;;0.80;0.80;;;24.70;99.90;;;;;;5030505;28;20220;-79
2021/07/16 12:47:35;;;;;;;0.73;0.73;;;24.80;99.90;;;;;;5020198;28;20502;-80
2021/07/16 12:50:11;;;;;;;0.70;0.70;;;24.70;99.90;;;;;;5023057;28;20215;-80
2021/07/16 12:52:38;;;;;;;1.60;0.90;;;24.60;99.90;;;;;;5011068;28;20584;-79
2021/07/16 12:55:14;;;;;;;1.25;1.15;;;24.60;99.90;;;;;;5019193;28;20599;-79
2021/07/16 12:57:42;;;;;;;0.90;0.90;;;24.60;99.90;;;;;;5023024;28;20289;-79
2021/07/16 13:00:20;;;;;;;1.13;1.02;;;24.70;99.90;;;;;;5024488;28;20235;-80